createdAt,value
2024-02-19T00:09:42.142Z,11.4
2024-02-19T00:24:42.134Z,11.3
2024-02-19T00:39:42.123Z,11.2
2024-02-19T00:54:42.055Z,11.1
2024-02-19T01:09:42.085Z,11
2024-02-19T01:24:42.100Z,10.8
2024-02-19T01:39:42.028Z,10.7
2024-02-19T01:54:42.008Z,10.7
2024-02-19T02:09:42.026Z,10.7
2024-02-19T02:24:41.961Z,10.5
2024-02-19T02:39:41.991Z,10.3
2024-02-19T02:54:41.979Z,10.3
2024-02-19T03:09:41.930Z,10.3
2024-02-19T03:24:42.010Z,10.3
2024-02-19T03:39:41.950Z,10.2
2024-02-19T03:54:41.905Z,10
2024-02-19T04:09:41.937Z,9.7
2024-02-19T04:24:41.825Z,9.6
2024-02-19T04:39:41.839Z,9.4
2024-02-19T04:54:41.857Z,9.2
2024-02-19T05:09:41.790Z,8.7
2024-02-19T05:24:41.753Z,8.5
2024-02-19T05:39:41.793Z,8.3
2024-02-19T05:54:41.738Z,8.4
2024-02-19T06:09:41.727Z,8.1
2024-02-19T06:24:41.720Z,8.1
2024-02-19T06:39:41.709Z,8.4
2024-02-19T06:54:41.798Z,8.3
2024-02-19T07:09:41.856Z,8.3
2024-02-19T07:24:41.639Z,8.6
2024-02-19T07:39:41.692Z,9.6
2024-02-19T07:54:41.589Z,11.6
2024-02-19T08:09:41.566Z,14.1
2024-02-19T08:24:41.614Z,14.4
2024-02-19T08:39:42.788Z,15.3
2024-02-19T08:54:41.579Z,17.1
2024-02-19T09:09:41.516Z,15.4
2024-02-19T09:24:41.478Z,13
2024-02-19T09:39:41.504Z,12.3
2024-02-19T09:54:41.457Z,12.2
2024-02-19T10:09:41.424Z,12.7
2024-02-19T10:24:41.364Z,12.6
2024-02-19T10:39:41.458Z,13.3
2024-02-19T10:54:41.332Z,14.2
2024-02-19T11:09:41.376Z,14
2024-02-19T11:24:41.923Z,13.6
2024-02-19T11:39:41.398Z,13.4
2024-02-19T11:54:41.288Z,13.7
2024-02-19T12:09:41.447Z,13.7
2024-02-19T12:24:41.196Z,13.6
2024-02-19T12:39:41.204Z,13.6
2024-02-19T12:54:41.163Z,13.5
2024-02-19T13:09:41.125Z,13.3
2024-02-19T13:24:41.081Z,13.2
2024-02-19T13:39:41.094Z,13.3
2024-02-19T13:54:41.102Z,13.3
2024-02-19T14:09:41.033Z,13.4
2024-02-19T14:24:41.253Z,13.6
2024-02-19T14:39:41.009Z,14
2024-02-19T14:54:40.959Z,13.8
2024-02-19T15:09:40.988Z,13.6
2024-02-19T15:24:40.909Z,13.5
2024-02-19T15:39:40.921Z,13.5
2024-02-19T15:54:40.873Z,13.2
2024-02-19T16:09:40.897Z,13.1
2024-02-19T16:24:40.809Z,12.9
2024-02-19T16:39:40.865Z,12.9
2024-02-19T16:54:40.788Z,12.7
2024-02-19T17:09:40.799Z,12.5
2024-02-19T17:24:40.751Z,12.3
2024-02-19T17:39:40.743Z,12.2
2024-02-19T17:54:40.751Z,12.1
2024-02-19T18:09:40.706Z,12
2024-02-19T18:24:40.661Z,11.9
2024-02-19T18:39:40.696Z,11.9
2024-02-19T18:54:40.628Z,11.9
2024-02-19T19:09:40.624Z,11.9
2024-02-19T19:24:40.598Z,11.8
2024-02-19T19:39:40.601Z,11.7
2024-02-19T19:54:40.539Z,11.7
2024-02-19T20:09:42.565Z,11.7
2024-02-19T20:24:40.499Z,11.8
2024-02-19T20:39:40.531Z,11.6
2024-02-19T20:54:40.480Z,11.5
2024-02-19T21:09:40.493Z,11.4
2024-02-19T21:24:40.412Z,11.3
2024-02-19T21:39:40.417Z,11.1
2024-02-19T21:54:40.440Z,11
2024-02-19T22:09:40.392Z,10.9
2024-02-19T22:24:40.389Z,10.8
2024-02-19T22:39:40.356Z,10.7
2024-02-19T22:54:40.330Z,10.3
2024-02-19T23:09:40.340Z,9.9
2024-02-19T23:24:40.260Z,9.5
2024-02-19T23:39:40.312Z,9.7
2024-02-19T23:54:40.239Z,9.8
